sensor_id;sensor_type;location;lat;lon;timestamp;P1;durP1;ratioP1;P2;durP2;ratioP2
58553;SDS011;48119;53.218;6.576;2023-06-22T00:00:51;19.08;;;13.15;;
58553;SDS011;48119;53.218;6.576;2023-06-22T00:03:21;22.23;;;15.00;;
58553;SDS011;48119;53.218;6.576;2023-06-22T00:05:48;19.83;;;13.05;;
58553;SDS011;48119;53.218;6.576;2023-06-22T00:08:17;17.65;;;15.05;;
58553;SDS011;48119;53.218;6.576;2023-06-22T00:10:44;17.45;;;14.50;;
58553;SDS011;48119;53.218;6.576;2023-06-22T00:13:10;17.00;;;14.10;;
58553;SDS011;48119;53.218;6.576;2023-06-22T00:15:37;19.30;;;14.15;;
58553;SDS011;48119;53.218;6.576;2023-06-22T00:18:06;18.42;;;14.35;;
58553;SDS011;48119;53.218;6.576;2023-06-22T00:25:43;21.40;;;14.90;;
58553;SDS011;48119;53.218;6.576;2023-06-22T00:28:10;22.42;;;15.40;;
58553;SDS011;48119;53.218;6.576;2023-06-22T00:30:36;22.50;;;15.55;;
58553;SDS011;48119;53.218;6.576;2023-06-22T00:33:01;19.65;;;15.38;;
58553;SDS011;48119;53.218;6.576;2023-06-22T00:35:27;22.52;;;15.18;;
58553;SDS011;48119;53.218;6.576;2023-06-22T00:37:56;22.17;;;15.45;;
58553;SDS011;48119;53.218;6.576;2023-06-22T00:40:26;19.95;;;14.95;;
58553;SDS011;48119;53.218;6.576;2023-06-22T00:42:52;21.92;;;17.45;;
58553;SDS011;48119;53.218;6.576;2023-06-22T00:45:18;22.20;;;15.00;;
58553;SDS011;48119;53.218;6.576;2023-06-22T00:47:44;22.45;;;15.93;;
58553;SDS011;48119;53.218;6.576;2023-06-22T00:50:10;21.75;;;15.60;;
58553;SDS011;48119;53.218;6.576;2023-06-22T00:52:46;20.65;;;15.55;;
58553;SDS011;48119;53.218;6.576;2023-06-22T00:55:24;21.25;;;16.35;;
58553;SDS011;48119;53.218;6.576;2023-06-22T00:57:51;19.05;;;15.02;;
58553;SDS011;48119;53.218;6.576;2023-06-22T01:00:21;22.30;;;15.77;;
58553;SDS011;48119;53.218;6.576;2023-06-22T01:02:53;19.83;;;15.50;;
58553;SDS011;48119;53.218;6.576;2023-06-22T01:05:20;21.27;;;16.80;;
58553;SDS011;48119;53.218;6.576;2023-06-22T01:08:00;26.58;;;16.80;;
58553;SDS011;48119;53.218;6.576;2023-06-22T01:11:14;24.25;;;16.95;;
58553;SDS011;48119;53.218;6.576;2023-06-22T01:18:42;24.33;;;17.88;;
58553;SDS011;48119;53.218;6.576;2023-06-22T01:21:10;21.65;;;17.00;;
58553;SDS011;48119;53.218;6.576;2023-06-22T01:23:50;24.85;;;17.75;;
58553;SDS011;48119;53.218;6.576;2023-06-22T01:28:56;23.10;;;17.27;;
58553;SDS011;48119;53.218;6.576;2023-06-22T01:31:24;25.23;;;17.95;;
58553;SDS011;48119;53.218;6.576;2023-06-22T01:33:59;20.45;;;16.92;;
58553;SDS011;48119;53.218;6.576;2023-06-22T01:36:27;23.75;;;16.30;;
58553;SDS011;48119;53.218;6.576;2023-06-22T01:38:54;20.67;;;14.82;;
58553;SDS011;48119;53.218;6.576;2023-06-22T01:41:24;20.83;;;15.40;;
58553;SDS011;48119;53.218;6.576;2023-06-22T01:43:51;20.33;;;15.45;;
58553;SDS011;48119;53.218;6.576;2023-06-22T01:46:19;21.88;;;15.77;;
58553;SDS011;48119;53.218;6.576;2023-06-22T01:48:46;18.75;;;14.40;;
58553;SDS011;48119;53.218;6.576;2023-06-22T01:51:13;19.27;;;15.43;;
58553;SDS011;48119;53.218;6.576;2023-06-22T01:53:39;18.55;;;15.75;;
58553;SDS011;48119;53.218;6.576;2023-06-22T01:56:05;20.25;;;16.00;;
58553;SDS011;48119;53.218;6.576;2023-06-22T01:58:31;18.42;;;15.88;;
58553;SDS011;48119;53.218;6.576;2023-06-22T02:01:11;18.77;;;15.05;;
58553;SDS011;48119;53.218;6.576;2023-06-22T02:03:43;19.88;;;15.93;;
58553;SDS011;48119;53.218;6.576;2023-06-22T02:06:23;24.08;;;17.45;;
58553;SDS011;48119;53.218;6.576;2023-06-22T02:08:57;19.67;;;16.35;;
58553;SDS011;48119;53.218;6.576;2023-06-22T02:11:26;20.20;;;16.63;;
58553;SDS011;48119;53.218;6.576;2023-06-22T02:13:54;20.50;;;16.77;;
58553;SDS011;48119;53.218;6.576;2023-06-22T02:16:22;24.13;;;19.08;;
58553;SDS011;48119;53.218;6.576;2023-06-22T02:18:49;25.73;;;20.65;;
58553;SDS011;48119;53.218;6.576;2023-06-22T02:21:18;25.50;;;19.77;;
58553;SDS011;48119;53.218;6.576;2023-06-22T02:23:45;26.00;;;19.45;;
58553;SDS011;48119;53.218;6.576;2023-06-22T02:26:11;23.13;;;19.35;;
58553;SDS011;48119;53.218;6.576;2023-06-22T02:28:37;21.10;;;18.48;;
58553;SDS011;48119;53.218;6.576;2023-06-22T02:31:03;23.23;;;19.05;;
58553;SDS011;48119;53.218;6.576;2023-06-22T02:33:29;30.90;;;19.83;;
58553;SDS011;48119;53.218;6.576;2023-06-22T02:35:54;24.35;;;19.13;;
58553;SDS011;48119;53.218;6.576;2023-06-22T02:38:20;24.33;;;19.73;;
58553;SDS011;48119;53.218;6.576;2023-06-22T02:40:46;25.27;;;19.05;;
58553;SDS011;48119;53.218;6.576;2023-06-22T02:43:12;25.25;;;21.17;;
58553;SDS011;48119;53.218;6.576;2023-06-22T02:45:38;25.73;;;21.02;;
58553;SDS011;48119;53.218;6.576;2023-06-22T02:48:04;25.73;;;21.45;;
58553;SDS011;48119;53.218;6.576;2023-06-22T02:50:30;25.90;;;20.55;;
58553;SDS011;48119;53.218;6.576;2023-06-22T02:52:55;26.13;;;20.10;;
58553;SDS011;48119;53.218;6.576;2023-06-22T02:55:21;27.95;;;21.35;;
58553;SDS011;48119;53.218;6.576;2023-06-22T02:57:48;23.90;;;20.42;;
58553;SDS011;48119;53.218;6.576;2023-06-22T03:00:17;28.63;;;22.80;;
58553;SDS011;48119;53.218;6.576;2023-06-22T03:02:44;25.05;;;22.25;;
58553;SDS011;48119;53.218;6.576;2023-06-22T03:05:13;29.25;;;21.77;;
58553;SDS011;48119;53.218;6.576;2023-06-22T03:07:42;28.15;;;24.30;;
58553;SDS011;48119;53.218;6.576;2023-06-22T03:10:12;24.02;;;20.95;;
58553;SDS011;48119;53.218;6.576;2023-06-22T03:12:40;25.75;;;21.50;;
58553;SDS011;48119;53.218;6.576;2023-06-22T03:15:10;26.50;;;22.38;;
58553;SDS011;48119;53.218;6.576;2023-06-22T03:17:37;24.55;;;20.23;;
58553;SDS011;48119;53.218;6.576;2023-06-22T03:20:05;28.42;;;22.25;;
58553;SDS011;48119;53.218;6.576;2023-06-22T03:22:36;25.38;;;20.45;;
58553;SDS011;48119;53.218;6.576;2023-06-22T03:25:02;23.70;;;20.13;;
58553;SDS011;48119;53.218;6.576;2023-06-22T03:27:27;27.20;;;21.02;;
58553;SDS011;48119;53.218;6.576;2023-06-22T03:29:53;23.85;;;19.42;;
58553;SDS011;48119;53.218;6.576;2023-06-22T03:32:19;27.70;;;21.77;;
58553;SDS011;48119;53.218;6.576;2023-06-22T03:34:44;24.88;;;20.17;;
58553;SDS011;48119;53.218;6.576;2023-06-22T03:37:14;27.17;;;22.08;;
58553;SDS011;48119;53.218;6.576;2023-06-22T03:39:40;26.83;;;20.38;;
58553;SDS011;48119;53.218;6.576;2023-06-22T03:42:06;30.48;;;21.38;;
58553;SDS011;48119;53.218;6.576;2023-06-22T03:44:33;26.75;;;21.25;;
58553;SDS011;48119;53.218;6.576;2023-06-22T03:47:01;26.67;;;21.73;;
58553;SDS011;48119;53.218;6.576;2023-06-22T03:49:28;29.35;;;21.05;;
58553;SDS011;48119;53.218;6.576;2023-06-22T03:51:54;26.85;;;21.33;;
58553;SDS011;48119;53.218;6.576;2023-06-22T03:54:20;25.15;;;21.02;;
58553;SDS011;48119;53.218;6.576;2023-06-22T03:56:45;32.20;;;21.80;;
58553;SDS011;48119;53.218;6.576;2023-06-22T03:59:11;24.77;;;19.83;;
58553;SDS011;48119;53.218;6.576;2023-06-22T04:01:37;26.30;;;21.20;;
58553;SDS011;48119;53.218;6.576;2023-06-22T04:04:02;28.30;;;22.75;;
58553;SDS011;48119;53.218;6.576;2023-06-22T04:06:28;28.10;;;23.17;;
58553;SDS011;48119;53.218;6.576;2023-06-22T04:08:54;27.15;;;22.75;;
58553;SDS011;48119;53.218;6.576;2023-06-22T04:11:20;28.33;;;22.50;;
58553;SDS011;48119;53.218;6.576;2023-06-22T04:13:45;27.65;;;23.23;;
58553;SDS011;48119;53.218;6.576;2023-06-22T04:16:11;29.70;;;23.38;;
58553;SDS011;48119;53.218;6.576;2023-06-22T04:18:37;27.73;;;21.88;;
58553;SDS011;48119;53.218;6.576;2023-06-22T04:21:02;34.50;;;24.20;;
58553;SDS011;48119;53.218;6.576;2023-06-22T04:23:28;28.52;;;24.02;;
58553;SDS011;48119;53.218;6.576;2023-06-22T04:25:54;33.65;;;24.85;;
58553;SDS011;48119;53.218;6.576;2023-06-22T04:28:21;33.47;;;23.80;;
58553;SDS011;48119;53.218;6.576;2023-06-22T04:30:47;30.38;;;25.60;;
58553;SDS011;48119;53.218;6.576;2023-06-22T04:33:13;30.85;;;24.92;;
58553;SDS011;48119;53.218;6.576;2023-06-22T04:35:39;31.98;;;25.48;;
58553;SDS011;48119;53.218;6.576;2023-06-22T04:38:08;35.13;;;26.20;;
58553;SDS011;48119;53.218;6.576;2023-06-22T04:40:34;37.25;;;27.67;;
58553;SDS011;48119;53.218;6.576;2023-06-22T04:43:00;31.63;;;26.08;;
58553;SDS011;48119;53.218;6.576;2023-06-22T04:45:28;33.05;;;25.70;;
58553;SDS011;48119;53.218;6.576;2023-06-22T04:47:57;34.92;;;26.67;;
58553;SDS011;48119;53.218;6.576;2023-06-22T04:50:23;32.90;;;24.05;;
58553;SDS011;48119;53.218;6.576;2023-06-22T04:52:49;36.25;;;25.50;;
58553;SDS011;48119;53.218;6.576;2023-06-22T04:55:15;31.45;;;25.02;;
58553;SDS011;48119;53.218;6.576;2023-06-22T04:57:46;30.02;;;24.63;;
58553;SDS011;48119;53.218;6.576;2023-06-22T05:00:19;33.60;;;25.58;;
58553;SDS011;48119;53.218;6.576;2023-06-22T05:02:46;30.25;;;24.25;;
58553;SDS011;48119;53.218;6.576;2023-06-22T05:05:13;33.40;;;24.95;;
58553;SDS011;48119;53.218;6.576;2023-06-22T05:07:45;33.47;;;25.88;;
58553;SDS011;48119;53.218;6.576;2023-06-22T05:10:13;34.83;;;26.52;;
58553;SDS011;48119;53.218;6.576;2023-06-22T05:12:40;29.23;;;24.23;;
58553;SDS011;48119;53.218;6.576;2023-06-22T05:15:06;32.38;;;24.65;;
58553;SDS011;48119;53.218;6.576;2023-06-22T05:17:33;29.90;;;23.48;;
58553;SDS011;48119;53.218;6.576;2023-06-22T05:19:59;29.60;;;24.20;;
58553;SDS011;48119;53.218;6.576;2023-06-22T05:22:25;32.70;;;25.00;;
58553;SDS011;48119;53.218;6.576;2023-06-22T05:24:51;30.83;;;22.80;;
58553;SDS011;48119;53.218;6.576;2023-06-22T05:27:17;26.30;;;22.48;;
58553;SDS011;48119;53.218;6.576;2023-06-22T05:29:42;27.38;;;22.00;;
58553;SDS011;48119;53.218;6.576;2023-06-22T05:32:08;28.30;;;23.52;;
58553;SDS011;48119;53.218;6.576;2023-06-22T05:34:34;28.33;;;22.48;;
58553;SDS011;48119;53.218;6.576;2023-06-22T05:37:00;28.73;;;23.45;;
58553;SDS011;48119;53.218;6.576;2023-06-22T05:39:27;31.42;;;23.20;;
58553;SDS011;48119;53.218;6.576;2023-06-22T05:41:52;25.63;;;21.92;;
58553;SDS011;48119;53.218;6.576;2023-06-22T05:44:18;30.00;;;21.85;;
58553;SDS011;48119;53.218;6.576;2023-06-22T05:46:44;23.10;;;18.23;;
58553;SDS011;48119;53.218;6.576;2023-06-22T05:49:12;27.98;;;22.08;;
58553;SDS011;48119;53.218;6.576;2023-06-22T05:51:38;26.70;;;22.33;;
58553;SDS011;48119;53.218;6.576;2023-06-22T05:54:04;24.13;;;20.73;;
58553;SDS011;48119;53.218;6.576;2023-06-22T05:56:30;27.58;;;21.55;;
58553;SDS011;48119;53.218;6.576;2023-06-22T05:58:56;28.45;;;23.02;;
58553;SDS011;48119;53.218;6.576;2023-06-22T06:01:21;25.75;;;21.10;;
58553;SDS011;48119;53.218;6.576;2023-06-22T06:03:47;28.05;;;20.88;;
58553;SDS011;48119;53.218;6.576;2023-06-22T06:06:15;27.98;;;21.65;;
58553;SDS011;48119;53.218;6.576;2023-06-22T06:08:41;24.85;;;20.15;;
58553;SDS011;48119;53.218;6.576;2023-06-22T06:11:07;27.08;;;20.90;;
58553;SDS011;48119;53.218;6.576;2023-06-22T06:13:33;23.88;;;19.15;;
58553;SDS011;48119;53.218;6.576;2023-06-22T06:15:58;24.58;;;18.83;;
58553;SDS011;48119;53.218;6.576;2023-06-22T06:18:24;25.70;;;18.48;;
58553;SDS011;48119;53.218;6.576;2023-06-22T06:20:50;25.52;;;18.17;;
58553;SDS011;48119;53.218;6.576;2023-06-22T06:23:18;22.48;;;17.50;;
58553;SDS011;48119;53.218;6.576;2023-06-22T06:25:43;21.02;;;17.80;;
58553;SDS011;48119;53.218;6.576;2023-06-22T06:28:09;19.73;;;17.17;;
58553;SDS011;48119;53.218;6.576;2023-06-22T06:30:35;23.33;;;19.73;;
58553;SDS011;48119;53.218;6.576;2023-06-22T06:33:02;23.13;;;19.33;;
58553;SDS011;48119;53.218;6.576;2023-06-22T06:35:29;22.83;;;18.38;;
58553;SDS011;48119;53.218;6.576;2023-06-22T06:37:55;23.33;;;19.48;;
58553;SDS011;48119;53.218;6.576;2023-06-22T06:40:21;21.55;;;16.33;;
58553;SDS011;48119;53.218;6.576;2023-06-22T06:42:47;20.00;;;17.17;;
58553;SDS011;48119;53.218;6.576;2023-06-22T06:45:19;20.75;;;15.65;;
58553;SDS011;48119;53.218;6.576;2023-06-22T06:50:16;19.02;;;16.00;;
58553;SDS011;48119;53.218;6.576;2023-06-22T06:52:42;21.88;;;16.63;;
58553;SDS011;48119;53.218;6.576;2023-06-22T06:55:08;18.17;;;15.00;;
58553;SDS011;48119;53.218;6.576;2023-06-22T06:57:37;17.88;;;15.30;;
58553;SDS011;48119;53.218;6.576;2023-06-22T07:00:07;22.67;;;17.55;;
58553;SDS011;48119;53.218;6.576;2023-06-22T07:02:37;21.52;;;17.75;;
58553;SDS011;48119;53.218;6.576;2023-06-22T07:05:05;19.77;;;15.80;;
58553;SDS011;48119;53.218;6.576;2023-06-22T07:07:31;22.00;;;15.60;;
58553;SDS011;48119;53.218;6.576;2023-06-22T07:09:58;20.10;;;16.25;;
58553;SDS011;48119;53.218;6.576;2023-06-22T07:12:23;18.35;;;15.43;;
58553;SDS011;48119;53.218;6.576;2023-06-22T07:14:49;19.77;;;14.98;;
58553;SDS011;48119;53.218;6.576;2023-06-22T07:17:16;15.38;;;13.77;;
58553;SDS011;48119;53.218;6.576;2023-06-22T07:19:41;19.98;;;14.57;;
58553;SDS011;48119;53.218;6.576;2023-06-22T07:22:07;18.80;;;15.60;;
58553;SDS011;48119;53.218;6.576;2023-06-22T07:24:33;19.75;;;15.00;;
58553;SDS011;48119;53.218;6.576;2023-06-22T07:26:59;18.40;;;13.93;;
58553;SDS011;48119;53.218;6.576;2023-06-22T07:29:25;18.50;;;15.07;;
58553;SDS011;48119;53.218;6.576;2023-06-22T07:31:51;18.13;;;14.93;;
58553;SDS011;48119;53.218;6.576;2023-06-22T07:34:18;21.33;;;13.68;;
58553;SDS011;48119;53.218;6.576;2023-06-22T07:36:44;15.25;;;12.98;;
58553;SDS011;48119;53.218;6.576;2023-06-22T07:39:11;16.67;;;12.43;;
58553;SDS011;48119;53.218;6.576;2023-06-22T07:41:38;14.93;;;11.88;;
58553;SDS011;48119;53.218;6.576;2023-06-22T07:44:06;16.85;;;13.05;;
58553;SDS011;48119;53.218;6.576;2023-06-22T07:46:32;16.38;;;12.88;;
58553;SDS011;48119;53.218;6.576;2023-06-22T07:48:58;18.40;;;14.25;;
58553;SDS011;48119;53.218;6.576;2023-06-22T07:51:24;14.02;;;11.38;;
58553;SDS011;48119;53.218;6.576;2023-06-22T07:53:51;14.35;;;11.65;;
58553;SDS011;48119;53.218;6.576;2023-06-22T07:56:17;16.38;;;10.82;;
58553;SDS011;48119;53.218;6.576;2023-06-22T07:58:45;13.30;;;10.15;;
58553;SDS011;48119;53.218;6.576;2023-06-22T08:01:11;12.10;;;9.65;;
58553;SDS011;48119;53.218;6.576;2023-06-22T08:03:37;12.30;;;9.63;;
58553;SDS011;48119;53.218;6.576;2023-06-22T08:06:04;11.95;;;9.45;;
58553;SDS011;48119;53.218;6.576;2023-06-22T08:08:33;13.25;;;9.23;;
58553;SDS011;48119;53.218;6.576;2023-06-22T08:10:59;13.65;;;9.48;;
58553;SDS011;48119;53.218;6.576;2023-06-22T08:13:25;12.57;;;9.30;;
58553;SDS011;48119;53.218;6.576;2023-06-22T08:15:50;14.45;;;10.75;;
58553;SDS011;48119;53.218;6.576;2023-06-22T08:18:16;12.43;;;8.90;;
58553;SDS011;48119;53.218;6.576;2023-06-22T08:20:42;11.98;;;8.15;;
58553;SDS011;48119;53.218;6.576;2023-06-22T08:23:08;13.07;;;9.80;;
58553;SDS011;48119;53.218;6.576;2023-06-22T08:25:33;13.57;;;8.38;;
58553;SDS011;48119;53.218;6.576;2023-06-22T08:28:00;10.40;;;7.00;;
58553;SDS011;48119;53.218;6.576;2023-06-22T08:30:26;9.00;;;6.93;;
58553;SDS011;48119;53.218;6.576;2023-06-22T08:32:52;10.30;;;8.00;;
58553;SDS011;48119;53.218;6.576;2023-06-22T08:35:20;11.43;;;6.72;;
58553;SDS011;48119;53.218;6.576;2023-06-22T08:37:50;11.20;;;6.68;;
58553;SDS011;48119;53.218;6.576;2023-06-22T08:40:19;9.60;;;6.30;;
58553;SDS011;48119;53.218;6.576;2023-06-22T08:42:46;11.10;;;6.18;;
58553;SDS011;48119;53.218;6.576;2023-06-22T08:45:12;10.95;;;6.57;;
58553;SDS011;48119;53.218;6.576;2023-06-22T08:47:39;11.38;;;6.78;;
58553;SDS011;48119;53.218;6.576;2023-06-22T08:50:09;10.43;;;7.05;;
58553;SDS011;48119;53.218;6.576;2023-06-22T08:52:36;10.95;;;5.65;;
58553;SDS011;48119;53.218;6.576;2023-06-22T08:55:03;8.98;;;7.10;;
58553;SDS011;48119;53.218;6.576;2023-06-22T08:57:29;8.35;;;6.38;;
58553;SDS011;48119;53.218;6.576;2023-06-22T08:59:55;10.32;;;7.32;;
58553;SDS011;48119;53.218;6.576;2023-06-22T09:02:25;10.50;;;7.25;;
58553;SDS011;48119;53.218;6.576;2023-06-22T09:04:55;9.00;;;6.93;;
58553;SDS011;48119;53.218;6.576;2023-06-22T09:07:22;10.32;;;7.72;;
58553;SDS011;48119;53.218;6.576;2023-06-22T09:09:49;8.45;;;7.13;;
58553;SDS011;48119;53.218;6.576;2023-06-22T09:12:14;11.20;;;7.60;;
58553;SDS011;48119;53.218;6.576;2023-06-22T09:14:40;9.82;;;6.93;;
58553;SDS011;48119;53.218;6.576;2023-06-22T09:17:06;10.48;;;7.97;;
58553;SDS011;48119;53.218;6.576;2023-06-22T09:19:32;13.05;;;8.30;;
58553;SDS011;48119;53.218;6.576;2023-06-22T09:21:58;11.95;;;8.50;;
58553;SDS011;48119;53.218;6.576;2023-06-22T09:24:24;11.75;;;7.97;;
58553;SDS011;48119;53.218;6.576;2023-06-22T09:26:50;14.90;;;8.05;;
58553;SDS011;48119;53.218;6.576;2023-06-22T09:29:16;8.43;;;6.15;;
58553;SDS011;48119;53.218;6.576;2023-06-22T09:31:42;13.18;;;7.32;;
58553;SDS011;48119;53.218;6.576;2023-06-22T09:34:07;8.35;;;6.30;;
58553;SDS011;48119;53.218;6.576;2023-06-22T09:36:33;12.60;;;7.18;;
58553;SDS011;48119;53.218;6.576;2023-06-22T09:38:59;10.40;;;6.60;;
58553;SDS011;48119;53.218;6.576;2023-06-22T09:41:30;10.60;;;6.85;;
58553;SDS011;48119;53.218;6.576;2023-06-22T09:43:56;8.80;;;6.63;;
58553;SDS011;48119;53.218;6.576;2023-06-22T09:46:22;10.55;;;8.23;;
58553;SDS011;48119;53.218;6.576;2023-06-22T09:48:52;10.48;;;7.28;;
58553;SDS011;48119;53.218;6.576;2023-06-22T09:51:18;11.50;;;8.43;;
58553;SDS011;48119;53.218;6.576;2023-06-22T09:53:47;13.48;;;8.52;;
58553;SDS011;48119;53.218;6.576;2023-06-22T09:56:13;12.38;;;8.65;;
58553;SDS011;48119;53.218;6.576;2023-06-22T09:58:43;12.90;;;7.65;;
58553;SDS011;48119;53.218;6.576;2023-06-22T10:01:10;13.27;;;9.90;;
58553;SDS011;48119;53.218;6.576;2023-06-22T10:03:36;11.48;;;8.00;;
58553;SDS011;48119;53.218;6.576;2023-06-22T10:06:02;8.88;;;7.28;;
58553;SDS011;48119;53.218;6.576;2023-06-22T10:08:28;8.35;;;6.80;;
58553;SDS011;48119;53.218;6.576;2023-06-22T10:10:54;9.93;;;7.90;;
58553;SDS011;48119;53.218;6.576;2023-06-22T10:13:20;10.00;;;7.47;;
58553;SDS011;48119;53.218;6.576;2023-06-22T10:15:46;10.40;;;7.72;;
58553;SDS011;48119;53.218;6.576;2023-06-22T10:18:16;9.25;;;7.45;;
58553;SDS011;48119;53.218;6.576;2023-06-22T10:20:42;7.93;;;6.55;;
58553;SDS011;48119;53.218;6.576;2023-06-22T10:23:08;9.40;;;6.97;;
58553;SDS011;48119;53.218;6.576;2023-06-22T10:25:34;12.85;;;8.63;;
58553;SDS011;48119;53.218;6.576;2023-06-22T10:28:00;10.85;;;7.72;;
58553;SDS011;48119;53.218;6.576;2023-06-22T10:30:25;9.55;;;7.43;;
58553;SDS011;48119;53.218;6.576;2023-06-22T10:32:51;12.52;;;7.90;;
58553;SDS011;48119;53.218;6.576;2023-06-22T10:35:17;8.63;;;6.25;;
58553;SDS011;48119;53.218;6.576;2023-06-22T10:37:43;9.13;;;6.97;;
58553;SDS011;48119;53.218;6.576;2023-06-22T10:40:13;10.13;;;7.20;;
58553;SDS011;48119;53.218;6.576;2023-06-22T10:42:40;10.88;;;6.53;;
58553;SDS011;48119;53.218;6.576;2023-06-22T10:45:06;7.38;;;6.10;;
58553;SDS011;48119;53.218;6.576;2023-06-22T10:47:33;11.30;;;7.13;;
58553;SDS011;48119;53.218;6.576;2023-06-22T10:49:59;8.30;;;6.32;;
58553;SDS011;48119;53.218;6.576;2023-06-22T10:52:25;10.90;;;6.60;;
58553;SDS011;48119;53.218;6.576;2023-06-22T10:54:50;10.75;;;6.72;;
58553;SDS011;48119;53.218;6.576;2023-06-22T10:57:17;8.70;;;6.60;;
58553;SDS011;48119;53.218;6.576;2023-06-22T10:59:43;10.18;;;6.93;;
58553;SDS011;48119;53.218;6.576;2023-06-22T11:02:09;11.05;;;6.35;;
58553;SDS011;48119;53.218;6.576;2023-06-22T11:04:35;6.53;;;5.50;;
58553;SDS011;48119;53.218;6.576;2023-06-22T11:07:02;10.63;;;6.28;;
58553;SDS011;48119;53.218;6.576;2023-06-22T11:09:27;8.45;;;5.88;;
58553;SDS011;48119;53.218;6.576;2023-06-22T11:11:53;10.40;;;5.88;;
58553;SDS011;48119;53.218;6.576;2023-06-22T11:14:21;8.70;;;6.70;;
58553;SDS011;48119;53.218;6.576;2023-06-22T11:16:47;10.25;;;6.85;;
58553;SDS011;48119;53.218;6.576;2023-06-22T11:19:13;7.55;;;6.40;;
58553;SDS011;48119;53.218;6.576;2023-06-22T11:21:39;7.40;;;6.30;;
58553;SDS011;48119;53.218;6.576;2023-06-22T11:24:04;9.40;;;7.00;;
58553;SDS011;48119;53.218;6.576;2023-06-22T11:26:31;8.63;;;6.80;;
58553;SDS011;48119;53.218;6.576;2023-06-22T11:28:57;10.90;;;7.20;;
58553;SDS011;48119;53.218;6.576;2023-06-22T11:31:23;12.68;;;6.00;;
58553;SDS011;48119;53.218;6.576;2023-06-22T11:33:49;10.32;;;6.00;;
58553;SDS011;48119;53.218;6.576;2023-06-22T11:36:15;10.15;;;6.47;;
58553;SDS011;48119;53.218;6.576;2023-06-22T11:38:41;7.00;;;5.63;;
58553;SDS011;48119;53.218;6.576;2023-06-22T11:41:07;7.78;;;5.53;;
58553;SDS011;48119;53.218;6.576;2023-06-22T11:43:34;7.53;;;5.13;;
58553;SDS011;48119;53.218;6.576;2023-06-22T11:46:01;7.90;;;5.32;;
58553;SDS011;48119;53.218;6.576;2023-06-22T11:48:28;8.68;;;6.55;;
58553;SDS011;48119;53.218;6.576;2023-06-22T11:50:55;9.60;;;6.25;;
58553;SDS011;48119;53.218;6.576;2023-06-22T11:53:21;9.25;;;7.05;;
58553;SDS011;48119;53.218;6.576;2023-06-22T11:55:47;10.25;;;6.90;;
58553;SDS011;48119;53.218;6.576;2023-06-22T11:58:14;11.90;;;6.03;;
58553;SDS011;48119;53.218;6.576;2023-06-22T12:00:39;8.93;;;6.93;;
58553;SDS011;48119;53.218;6.576;2023-06-22T12:03:06;9.07;;;6.90;;
58553;SDS011;48119;53.218;6.576;2023-06-22T12:05:33;10.40;;;6.95;;
58553;SDS011;48119;53.218;6.576;2023-06-22T12:07:59;7.10;;;5.45;;
58553;SDS011;48119;53.218;6.576;2023-06-22T12:10:27;10.50;;;6.20;;
58553;SDS011;48119;53.218;6.576;2023-06-22T12:12:53;8.57;;;5.95;;
58553;SDS011;48119;53.218;6.576;2023-06-22T12:15:19;10.63;;;6.32;;
58553;SDS011;48119;53.218;6.576;2023-06-22T12:17:45;9.13;;;6.13;;
58553;SDS011;48119;53.218;6.576;2023-06-22T12:20:13;7.63;;;6.22;;
58553;SDS011;48119;53.218;6.576;2023-06-22T12:22:40;8.43;;;6.07;;
58553;SDS011;48119;53.218;6.576;2023-06-22T12:25:10;7.85;;;5.65;;
58553;SDS011;48119;53.218;6.576;2023-06-22T12:27:36;8.68;;;5.57;;
58553;SDS011;48119;53.218;6.576;2023-06-22T12:30:03;9.50;;;5.45;;
58553;SDS011;48119;53.218;6.576;2023-06-22T12:32:29;7.50;;;4.80;;
58553;SDS011;48119;53.218;6.576;2023-06-22T12:34:55;11.02;;;5.72;;
58553;SDS011;48119;53.218;6.576;2023-06-22T12:37:21;11.05;;;6.93;;
58553;SDS011;48119;53.218;6.576;2023-06-22T12:39:48;11.77;;;6.68;;
58553;SDS011;48119;53.218;6.576;2023-06-22T12:42:14;8.48;;;6.15;;
58553;SDS011;48119;53.218;6.576;2023-06-22T12:44:40;9.40;;;6.13;;
58553;SDS011;48119;53.218;6.576;2023-06-22T12:47:06;10.65;;;6.47;;
58553;SDS011;48119;53.218;6.576;2023-06-22T12:49:34;7.72;;;5.15;;
58553;SDS011;48119;53.218;6.576;2023-06-22T12:52:00;6.78;;;5.32;;
58553;SDS011;48119;53.218;6.576;2023-06-22T12:54:26;11.02;;;6.55;;
58553;SDS011;48119;53.218;6.576;2023-06-22T12:56:53;7.65;;;6.07;;
58553;SDS011;48119;53.218;6.576;2023-06-22T12:59:19;9.98;;;5.90;;
58553;SDS011;48119;53.218;6.576;2023-06-22T13:01:44;6.43;;;4.78;;
58553;SDS011;48119;53.218;6.576;2023-06-22T13:04:11;7.75;;;5.10;;
58553;SDS011;48119;53.218;6.576;2023-06-22T13:06:40;8.15;;;4.30;;
58553;SDS011;48119;53.218;6.576;2023-06-22T13:09:06;6.13;;;4.18;;
58553;SDS011;48119;53.218;6.576;2023-06-22T13:11:32;7.28;;;3.88;;
58553;SDS011;48119;53.218;6.576;2023-06-22T13:13:58;4.55;;;3.03;;
58553;SDS011;48119;53.218;6.576;2023-06-22T13:16:23;5.80;;;3.78;;
58553;SDS011;48119;53.218;6.576;2023-06-22T13:18:49;4.00;;;3.15;;
58553;SDS011;48119;53.218;6.576;2023-06-22T13:21:15;11.63;;;4.47;;
58553;SDS011;48119;53.218;6.576;2023-06-22T13:23:40;4.50;;;3.22;;
58553;SDS011;48119;53.218;6.576;2023-06-22T13:26:06;6.03;;;2.85;;
58553;SDS011;48119;53.218;6.576;2023-06-22T13:28:32;4.72;;;2.55;;
58553;SDS011;48119;53.218;6.576;2023-06-22T13:30:58;3.95;;;3.03;;
58553;SDS011;48119;53.218;6.576;2023-06-22T13:33:24;5.45;;;3.47;;
58553;SDS011;48119;53.218;6.576;2023-06-22T13:35:50;3.38;;;2.67;;
58553;SDS011;48119;53.218;6.576;2023-06-22T13:38:15;5.38;;;3.33;;
58553;SDS011;48119;53.218;6.576;2023-06-22T13:40:42;4.70;;;2.67;;
58553;SDS011;48119;53.218;6.576;2023-06-22T13:43:08;3.88;;;2.78;;
58553;SDS011;48119;53.218;6.576;2023-06-22T13:45:34;7.18;;;3.35;;
58553;SDS011;48119;53.218;6.576;2023-06-22T13:48:00;6.93;;;2.75;;
58553;SDS011;48119;53.218;6.576;2023-06-22T13:50:26;3.75;;;2.67;;
58553;SDS011;48119;53.218;6.576;2023-06-22T13:52:54;5.22;;;3.05;;
58553;SDS011;48119;53.218;6.576;2023-06-22T13:55:20;5.95;;;2.88;;
58553;SDS011;48119;53.218;6.576;2023-06-22T13:57:46;4.22;;;2.75;;
58553;SDS011;48119;53.218;6.576;2023-06-22T14:00:12;4.82;;;2.97;;
58553;SDS011;48119;53.218;6.576;2023-06-22T14:02:38;4.72;;;2.97;;
58553;SDS011;48119;53.218;6.576;2023-06-22T14:05:05;4.20;;;3.08;;
58553;SDS011;48119;53.218;6.576;2023-06-22T14:07:31;5.38;;;2.78;;
58553;SDS011;48119;53.218;6.576;2023-06-22T14:09:57;6.53;;;3.33;;
58553;SDS011;48119;53.218;6.576;2023-06-22T14:12:24;4.45;;;2.72;;
58553;SDS011;48119;53.218;6.576;2023-06-22T14:14:50;6.60;;;3.33;;
58553;SDS011;48119;53.218;6.576;2023-06-22T14:17:15;5.43;;;2.92;;
58553;SDS011;48119;53.218;6.576;2023-06-22T14:19:41;5.97;;;2.42;;
58553;SDS011;48119;53.218;6.576;2023-06-22T14:22:07;5.78;;;2.80;;
58553;SDS011;48119;53.218;6.576;2023-06-22T14:24:33;3.92;;;2.40;;
58553;SDS011;48119;53.218;6.576;2023-06-22T14:26:59;5.35;;;2.30;;
58553;SDS011;48119;53.218;6.576;2023-06-22T14:29:27;3.08;;;2.10;;
58553;SDS011;48119;53.218;6.576;2023-06-22T14:31:53;3.25;;;1.90;;
58553;SDS011;48119;53.218;6.576;2023-06-22T14:34:19;3.30;;;1.90;;
58553;SDS011;48119;53.218;6.576;2023-06-22T14:36:44;4.07;;;2.03;;
58553;SDS011;48119;53.218;6.576;2023-06-22T14:39:10;3.92;;;2.58;;
58553;SDS011;48119;53.218;6.576;2023-06-22T14:41:36;2.63;;;1.60;;
58553;SDS011;48119;53.218;6.576;2023-06-22T14:44:02;4.18;;;1.83;;